createdAt,value
2022-09-10T00:02:02.172Z,15.97
2022-09-10T00:04:28.839Z,15.92
2022-09-10T00:06:56.296Z,15.95
2022-09-10T00:09:23.484Z,15.95
2022-09-10T00:11:50.476Z,16.01
2022-09-10T00:14:20.380Z,15.94
2022-09-10T00:16:47.919Z,15.90
2022-09-10T00:19:15.785Z,15.90
2022-09-10T00:21:44.656Z,15.90
2022-09-10T00:24:13.237Z,15.88
2022-09-10T00:26:40.504Z,15.73
2022-09-10T00:29:12.578Z,15.59
2022-09-10T00:31:40.179Z,15.41
2022-09-10T00:34:07.125Z,15.31
2022-09-10T00:36:37.374Z,15.34
2022-09-10T00:39:11.219Z,15.34
2022-09-10T00:41:39.941Z,15.43
2022-09-10T00:44:27.633Z,15.46
2022-09-10T00:46:58.130Z,15.47
2022-09-10T00:49:40.912Z,15.61
2022-09-10T00:52:09.527Z,15.69
2022-09-10T00:54:37.720Z,15.62
2022-09-10T00:57:11.842Z,15.51
2022-09-10T00:59:41.844Z,15.48
2022-09-10T01:02:08.903Z,15.46
2022-09-10T01:04:36.104Z,15.47
2022-09-10T01:07:03.045Z,15.41
2022-09-10T01:09:31.883Z,15.37
2022-09-10T01:12:10.791Z,15.39
2022-09-10T01:15:23.221Z,15.33
2022-09-10T01:18:09.872Z,15.26
2022-09-10T01:20:46.546Z,15.31
2022-09-10T01:23:19.069Z,15.31
2022-09-10T01:26:06.648Z,15.34
2022-09-10T01:28:48.954Z,15.41
2022-09-10T01:31:29.611Z,15.46
2022-09-10T01:34:05.768Z,15.46
2022-09-10T01:36:40.951Z,15.49
2022-09-10T01:39:08.326Z,15.42
2022-09-10T01:41:35.554Z,15.41
2022-09-10T01:44:31.833Z,15.36
2022-09-10T01:47:14.822Z,15.24
2022-09-10T01:50:04.679Z,15.26
2022-09-10T01:52:56.346Z,15.25
2022-09-10T01:55:48.687Z,15.23
2022-09-10T01:58:35.745Z,15.27
2022-09-10T02:01:16.898Z,15.34
2022-09-10T02:03:50.277Z,15.34
2022-09-10T02:06:20.983Z,15.32
2022-09-10T02:08:52.612Z,15.23
2022-09-10T02:11:19.398Z,15.28
2022-09-10T02:13:49.550Z,15.42
2022-09-10T02:16:31.140Z,15.47
2022-09-10T02:19:02.389Z,15.29
2022-09-10T02:21:28.998Z,15.34
2022-09-10T02:24:00.958Z,15.26
2022-09-10T02:26:27.773Z,15.22
2022-09-10T02:28:54.681Z,15.20
2022-09-10T02:31:21.605Z,15.24
2022-09-10T02:33:48.350Z,15.09
2022-09-10T02:36:15.104Z,15.13
2022-09-10T02:38:41.658Z,15.09
2022-09-10T02:41:09.837Z,15.17
2022-09-10T02:43:38.337Z,15.26
2022-09-10T02:46:08.622Z,15.36
2022-09-10T02:48:35.237Z,15.37
2022-09-10T02:51:02.708Z,15.44
2022-09-10T02:53:31.082Z,15.42
2022-09-10T02:55:58.108Z,15.44
2022-09-10T02:58:25.093Z,15.49
2022-09-10T03:00:51.919Z,15.53
2022-09-10T03:03:18.598Z,15.43
2022-09-10T03:05:45.731Z,15.44
2022-09-10T03:08:12.481Z,15.47
2022-09-10T03:10:41.237Z,15.36
2022-09-10T03:13:08.515Z,15.41
2022-09-10T03:15:35.110Z,15.40
2022-09-10T03:18:01.736Z,15.38
2022-09-10T03:20:28.338Z,15.41
2022-09-10T03:22:55.275Z,15.40
2022-09-10T03:25:22.873Z,15.29
2022-09-10T03:27:50.143Z,15.33
2022-09-10T03:30:17.096Z,15.43
2022-09-10T03:32:46.604Z,15.50
2022-09-10T03:35:14.064Z,15.53
2022-09-10T03:37:40.689Z,15.47
2022-09-10T03:40:08.599Z,15.53
2022-09-10T03:42:37.084Z,15.55
2022-09-10T03:45:04.156Z,15.50
2022-09-10T03:47:31.378Z,15.49
2022-09-10T03:49:59.892Z,15.48
2022-09-10T03:52:27.204Z,15.51
2022-09-10T03:54:54.789Z,15.52
2022-09-10T03:57:23.354Z,15.50
2022-09-10T03:59:49.971Z,15.52
2022-09-10T04:02:17.193Z,15.50
2022-09-10T04:04:44.347Z,15.42
2022-09-10T04:07:11.388Z,15.42
2022-09-10T04:09:37.951Z,15.42
2022-09-10T04:12:13.613Z,15.45
2022-09-10T04:14:42.734Z,15.50
2022-09-10T04:17:09.894Z,15.50
2022-09-10T04:19:36.656Z,15.52
2022-09-10T04:22:03.918Z,15.54
2022-09-10T04:24:31.119Z,15.47
2022-09-10T04:26:57.726Z,15.50
2022-09-10T04:29:24.331Z,15.52
2022-09-10T04:31:51.109Z,15.54
2022-09-10T04:34:19.105Z,15.62
2022-09-10T04:36:47.065Z,15.59
2022-09-10T04:39:14.643Z,15.62
2022-09-10T04:41:41.415Z,15.59
2022-09-10T04:44:08.161Z,15.63
2022-09-10T04:46:35.356Z,15.62
2022-09-10T04:49:02.580Z,15.69
2022-09-10T04:51:29.147Z,15.71
2022-09-10T04:53:56.039Z,15.74
2022-09-10T04:56:22.670Z,15.76
2022-09-10T04:58:50.663Z,15.72
2022-09-10T05:03:55.360Z,15.72
2022-09-10T05:06:24.197Z,15.64
2022-09-10T05:08:51.794Z,15.70
2022-09-10T05:11:20.301Z,15.59
2022-09-10T05:16:28.277Z,15.56
2022-09-10T05:21:42.530Z,15.44
2022-09-10T05:24:11.290Z,15.54
2022-09-10T05:26:38.937Z,15.59
2022-09-10T05:29:14.194Z,15.61
2022-09-10T05:31:42.406Z,15.66
2022-09-10T05:34:09.696Z,15.61
2022-09-10T05:36:40.142Z,15.63
2022-09-10T05:39:07.907Z,15.58
2022-09-10T05:41:39.031Z,15.62
2022-09-10T05:44:13.360Z,15.57
2022-09-10T05:46:40.661Z,15.48
2022-09-10T05:51:48.495Z,15.40
2022-09-10T05:54:18.206Z,15.43
2022-09-10T05:56:46.685Z,15.47
2022-09-10T05:59:14.720Z,15.40
2022-09-10T06:01:42.548Z,15.40
2022-09-10T06:04:19.146Z,15.48
2022-09-10T06:06:53.957Z,15.48
2022-09-10T06:17:35.136Z,15.74
2022-09-10T06:20:06.714Z,15.84
2022-09-10T06:22:35.727Z,15.77
2022-09-10T06:25:12.374Z,15.76
2022-09-10T06:27:43.773Z,15.83
2022-09-10T06:30:17.977Z,15.91
2022-09-10T06:32:50.327Z,15.96
2022-09-10T06:35:21.729Z,16.01
2022-09-10T06:37:57.730Z,16.08
2022-09-10T06:40:28.953Z,16.04
2022-09-10T06:45:48.205Z,16.16
2022-09-10T07:07:46.929Z,16.28
2022-09-10T07:10:14.480Z,16.37
2022-09-10T07:24:10.737Z,17.11
2022-09-10T07:49:20.855Z,16.99
2022-09-10T08:09:43.995Z,17.02
2022-09-10T08:25:38.409Z,17.61
2022-09-10T08:28:05.564Z,17.47
2022-09-10T08:30:32.500Z,17.43
2022-09-10T08:32:59.440Z,17.53
2022-09-10T08:35:27.674Z,17.49
2022-09-10T08:37:54.555Z,17.49
2022-09-10T08:40:24.173Z,17.49
2022-09-10T08:42:54.984Z,17.69
2022-09-10T08:45:29.444Z,17.57
2022-09-10T08:48:08.332Z,17.49
2022-09-10T08:51:04.051Z,17.47
2022-09-10T08:53:41.249Z,17.48
2022-09-10T08:56:28.180Z,17.36
2022-09-10T08:59:06.072Z,17.43
2022-09-10T09:04:51.491Z,17.45
2022-09-10T09:07:22.257Z,17.37
2022-09-10T09:09:53.673Z,17.39
2022-09-10T09:12:48.861Z,17.50
2022-09-10T09:15:26.092Z,17.84
2022-09-10T09:18:23.008Z,18.52
2022-09-10T09:21:02.343Z,19.41
2022-09-10T09:24:13.873Z,20.83
2022-09-10T09:42:41.962Z,18.61
2022-09-10T09:48:41.208Z,18.46
2022-09-10T09:51:26.181Z,18.28
2022-09-10T09:54:56.568Z,18.35
2022-09-10T10:00:36.514Z,18.07
2022-09-10T10:03:16.552Z,18.13
2022-09-10T10:05:43.277Z,18.13
2022-09-10T10:08:58.103Z,18.14
2022-09-10T10:11:40.406Z,17.88
2022-09-10T10:14:20.621Z,17.81
2022-09-10T10:16:55.145Z,18.12
2022-09-10T10:19:37.309Z,18.09
2022-09-10T10:22:24.044Z,17.82
2022-09-10T10:24:55.097Z,17.44
2022-09-10T10:27:36.628Z,17.01
2022-09-10T10:30:25.321Z,16.87
2022-09-10T10:33:03.536Z,16.60
2022-09-10T10:35:42.799Z,16.56
2022-09-10T10:38:30.811Z,16.79
2022-09-10T10:41:25.242Z,16.80
2022-09-10T10:43:51.936Z,16.76
2022-09-10T10:47:03.840Z,16.82
2022-09-10T10:49:52.144Z,17.06
2022-09-10T10:52:40.636Z,16.96
2022-09-10T10:58:23.296Z,17.15
2022-09-10T11:01:21.854Z,16.98
2022-09-10T11:04:15.875Z,17.39
2022-09-10T11:06:50.058Z,17.65
2022-09-10T11:12:37.994Z,17.79
2022-09-10T11:15:39.300Z,18.27
2022-09-10T11:18:12.006Z,18.68
2022-09-10T11:20:47.134Z,18.86
2022-09-10T11:23:26.338Z,18.95
2022-09-10T11:26:13.104Z,18.96
2022-09-10T11:28:58.036Z,18.98
2022-09-10T11:34:58.163Z,18.92
2022-09-10T11:37:41.193Z,18.43
2022-09-10T11:40:22.036Z,18.30
2022-09-10T11:42:53.274Z,18.54
2022-09-10T11:45:40.105Z,18.64
2022-09-10T11:48:53.532Z,19.05
2022-09-10T11:51:33.807Z,19.23
2022-09-10T11:54:10.368Z,19.86
2022-09-10T11:56:37.521Z,20.37
2022-09-10T11:59:30.763Z,20.42
2022-09-10T12:02:20.224Z,20.13
2022-09-10T12:05:04.334Z,20.36
2022-09-10T12:07:41.020Z,20.47
2022-09-10T12:10:40.668Z,20.44
2022-09-10T12:13:12.113Z,20.36
2022-09-10T12:15:38.945Z,20.48
2022-09-10T12:18:25.655Z,20.46
2022-09-10T12:21:00.045Z,20.11
2022-09-10T12:23:33.626Z,20.16
2022-09-10T12:26:09.506Z,20.66
2022-09-10T12:28:42.484Z,20.54
2022-09-10T12:31:17.723Z,20.30
2022-09-10T12:33:47.752Z,20.44
2022-09-10T12:36:26.869Z,20.18
2022-09-10T12:39:26.019Z,19.35
2022-09-10T12:42:01.921Z,19.20
2022-09-10T12:44:34.778Z,19.39
2022-09-10T12:47:17.213Z,19.12
2022-09-10T12:49:59.826Z,19.40
2022-09-10T12:52:35.328Z,19.93
2022-09-10T12:58:32.632Z,19.75
2022-09-10T13:01:08.733Z,19.86
2022-09-10T13:03:36.835Z,20.29
2022-09-10T13:06:07.004Z,20.56
2022-09-10T13:08:42.236Z,20.76
2022-09-10T13:11:14.617Z,20.57
2022-09-10T13:14:02.545Z,20.72
2022-09-10T13:16:29.439Z,20.78
2022-09-10T13:19:14.543Z,20.61
2022-09-10T13:21:42.206Z,20.66
2022-09-10T13:24:34.840Z,20.97
2022-09-10T13:27:20.907Z,20.55
2022-09-10T13:30:18.107Z,20.44
2022-09-10T13:35:49.480Z,20.72
2022-09-10T13:38:39.000Z,20.09
2022-09-10T13:41:35.262Z,19.74
2022-09-10T13:44:20.820Z,19.87
2022-09-10T13:46:53.597Z,20.18
2022-09-10T13:52:16.371Z,20.67
2022-09-10T13:57:45.525Z,20.29
2022-09-10T14:03:00.493Z,21.43
2022-09-10T14:05:49.191Z,21.29
2022-09-10T14:08:34.210Z,20.99
2022-09-10T14:14:06.600Z,20.43
2022-09-10T14:19:58.523Z,20.38
2022-09-10T14:35:48.081Z,20.10
2022-09-10T14:41:35.608Z,20.02
2022-09-10T15:05:55.696Z,19.67
2022-09-10T15:25:09.741Z,17.99
2022-09-10T15:33:55.309Z,18.78
2022-09-10T15:39:16.617Z,18.64
2022-09-10T15:51:38.272Z,18.73
2022-09-10T15:54:10.931Z,18.85
2022-09-10T15:56:38.581Z,18.72
2022-09-10T15:59:11.293Z,18.55
2022-09-10T16:01:38.917Z,18.60
2022-09-10T16:04:09.417Z,18.80
2022-09-10T16:06:38.811Z,18.86
2022-09-10T16:09:33.239Z,18.96
2022-09-10T16:14:40.899Z,18.83
2022-09-10T16:17:10.858Z,18.84
2022-09-10T16:19:38.400Z,18.84
2022-09-10T16:22:08.242Z,18.87
2022-09-10T16:25:00.088Z,18.94
2022-09-10T16:27:29.916Z,18.88
2022-09-10T16:29:59.262Z,18.96
2022-09-10T16:32:30.899Z,18.89
2022-09-10T17:06:00.219Z,18.22
2022-09-10T17:09:03.623Z,18.11
2022-09-10T17:11:48.071Z,18.05
2022-09-10T17:14:53.116Z,17.82
2022-09-10T17:17:58.667Z,17.81
2022-09-10T17:21:32.898Z,17.95
2022-09-10T17:25:04.935Z,17.57
2022-09-10T17:30:42.219Z,17.76
2022-09-10T17:36:51.466Z,17.60
2022-09-10T17:42:16.623Z,17.44
2022-09-10T17:44:47.455Z,17.34
2022-09-10T17:47:17.487Z,17.37
2022-09-10T17:49:51.919Z,17.43
2022-09-10T17:52:36.978Z,17.31
2022-09-10T17:58:00.260Z,17.40
2022-09-10T18:00:27.421Z,17.35
2022-09-10T18:02:54.559Z,17.45
2022-09-10T18:08:14.822Z,17.46
2022-09-10T18:10:44.593Z,17.37
2022-09-10T18:13:12.125Z,17.40
2022-09-10T18:15:53.028Z,17.29
2022-09-10T18:18:22.190Z,17.29
2022-09-10T18:20:55.629Z,17.16
2022-09-10T18:23:36.357Z,17.19
2022-09-10T18:26:31.275Z,17.04
2022-09-10T18:45:59.468Z,17.26
2022-09-10T18:48:41.314Z,17.16
2022-09-10T18:51:47.444Z,17.20
2022-09-10T18:54:23.851Z,17.23
2022-09-10T18:57:19.781Z,17.08
2022-09-10T19:03:01.977Z,17.05
2022-09-10T19:05:29.009Z,17.11
2022-09-10T19:07:56.960Z,17.14
2022-09-10T19:10:32.979Z,17.22
2022-09-10T19:13:11.081Z,17.17
2022-09-10T19:19:02.315Z,16.94
2022-09-10T19:31:05.847Z,16.94
2022-09-10T19:42:10.545Z,16.98
2022-09-10T19:44:43.257Z,17.06
2022-09-10T19:47:20.514Z,17.11
2022-09-10T19:52:37.322Z,16.68
2022-09-10T19:55:21.996Z,16.52
2022-09-10T20:00:46.274Z,16.43
2022-09-10T20:03:25.008Z,16.15
2022-09-10T20:05:56.569Z,16.09
2022-09-10T20:08:49.449Z,15.88
2022-09-10T20:14:28.152Z,15.42
2022-09-10T20:17:12.218Z,15.43
2022-09-10T20:19:52.879Z,15.43
2022-09-10T20:22:41.153Z,15.38
2022-09-10T20:26:04.109Z,15.46
2022-09-10T20:30:59.462Z,15.49
2022-09-10T20:36:56.612Z,15.71
2022-09-10T20:49:15.461Z,15.84
2022-09-10T20:51:44.056Z,15.83
2022-09-10T20:54:16.315Z,15.75
2022-09-10T20:56:43.297Z,15.86
2022-09-10T20:59:12.155Z,15.76
2022-09-10T21:01:41.525Z,15.79
2022-09-10T21:04:08.223Z,15.94
2022-09-10T21:06:37.833Z,16.03
2022-09-10T21:09:21.624Z,16.15
2022-09-10T21:11:49.356Z,16.13
2022-09-10T21:14:17.716Z,16.18
2022-09-10T21:16:47.884Z,16.24
2022-09-10T21:19:16.910Z,16.20
2022-09-10T21:21:45.841Z,16.19
2022-09-10T21:24:16.044Z,16.18
2022-09-10T21:26:43.669Z,16.13
2022-09-10T21:29:19.768Z,16.11
2022-09-10T21:31:47.698Z,16.11
2022-09-10T21:34:15.108Z,16.08
2022-09-10T21:36:44.280Z,16.07
2022-09-10T21:39:16.714Z,16.03
2022-09-10T21:41:48.440Z,15.99
2022-09-10T21:44:17.913Z,16.00
2022-09-10T21:46:47.379Z,15.99
2022-09-10T21:49:23.212Z,15.96
2022-09-10T21:51:51.402Z,15.91
2022-09-10T21:54:21.172Z,15.88
2022-09-10T21:56:49.839Z,15.91
2022-09-10T21:59:17.860Z,15.92
2022-09-10T22:01:46.706Z,15.95
2022-09-10T22:04:19.943Z,15.92
2022-09-10T22:06:49.345Z,15.88
2022-09-10T22:09:17.362Z,15.86
2022-09-10T22:11:50.409Z,15.92
2022-09-10T22:14:23.206Z,15.93
2022-09-10T22:16:50.896Z,16.01
2022-09-10T22:19:20.311Z,16.06
2022-09-10T22:21:47.160Z,16.09
2022-09-10T22:24:15.532Z,16.11
2022-09-10T22:26:44.281Z,16.16
2022-09-10T22:29:12.665Z,16.12
2022-09-10T22:31:39.421Z,16.09
2022-09-10T22:34:08.543Z,16.07
2022-09-10T22:36:37.839Z,16.03
2022-09-10T22:39:15.811Z,15.98
2022-09-10T22:41:44.830Z,15.98
2022-09-10T22:44:12.997Z,16.06
2022-09-10T22:46:43.114Z,16.01
2022-09-10T22:49:10.202Z,16.07
2022-09-10T22:51:41.014Z,16.11
2022-09-10T22:54:08.844Z,16.12
2022-09-10T22:56:36.249Z,16.11
2022-09-10T22:59:04.209Z,16.02
2022-09-10T23:01:35.584Z,16.14
2022-09-10T23:04:03.354Z,16.18
2022-09-10T23:06:33.517Z,16.13
2022-09-10T23:09:15.232Z,16.13
2022-09-10T23:11:44.385Z,16.12
2022-09-10T23:14:17.982Z,15.89
2022-09-10T23:16:50.109Z,15.98
2022-09-10T23:19:25.708Z,15.94
2022-09-10T23:21:54.635Z,15.97
2022-09-10T23:24:24.436Z,16.00
2022-09-10T23:26:51.082Z,16.05
2022-09-10T23:29:17.955Z,16.07
2022-09-10T23:31:46.263Z,16.00
2022-09-10T23:34:15.993Z,15.96
2022-09-10T23:36:44.908Z,15.98
2022-09-10T23:39:14.483Z,15.92
2022-09-10T23:41:41.921Z,15.93
2022-09-10T23:44:09.193Z,15.88
2022-09-10T23:46:36.698Z,15.95
2022-09-10T23:49:04.547Z,15.89
2022-09-10T23:51:32.333Z,15.95
2022-09-10T23:53:59.437Z,15.89
2022-09-10T23:56:26.993Z,15.84
2022-09-10T23:58:53.541Z,15.86
